sensor_id;sensor_type;location;lat;lon;timestamp;pressure;altitude;pressure_sealevel;temperature;humidity
16120;BME280;12670;53.502;10.252;2022-11-28T00:02:05;101232.69;;;7.24;100.00
16120;BME280;12670;53.502;10.252;2022-11-28T00:05:09;101229.88;;;7.33;100.00
16120;BME280;12670;53.502;10.252;2022-11-28T00:08:12;101228.34;;;7.21;100.00
16120;BME280;12670;53.502;10.252;2022-11-28T00:11:16;101229.88;;;7.32;100.00
16120;BME280;12670;53.502;10.252;2022-11-28T00:14:19;101240.25;;;7.41;100.00
16120;BME280;12670;53.502;10.252;2022-11-28T00:17:22;101235.50;;;7.16;100.00
16120;BME280;12670;53.502;10.252;2022-11-28T00:20:24;101223.78;;;7.30;100.00
16120;BME280;12670;53.502;10.252;2022-11-28T00:23:27;101216.28;;;7.50;100.00
16120;BME280;12670;53.502;10.252;2022-11-28T00:26:33;101229.38;;;7.56;100.00
16120;BME280;12670;53.502;10.252;2022-11-28T00:29:37;101226.03;;;7.48;100.00
16120;BME280;12670;53.502;10.252;2022-11-28T00:32:40;101220.69;;;7.51;100.00
16120;BME280;12670;53.502;10.252;2022-11-28T00:35:42;101227.97;;;7.40;100.00
16120;BME280;12670;53.502;10.252;2022-11-28T00:38:45;101207.94;;;7.30;100.00
16120;BME280;12670;53.502;10.252;2022-11-28T00:41:49;101190.38;;;7.29;100.00
16120;BME280;12670;53.502;10.252;2022-11-28T00:44:52;101206.78;;;7.43;100.00
16120;BME280;12670;53.502;10.252;2022-11-28T00:47:55;101211.56;;;7.24;100.00
16120;BME280;12670;53.502;10.252;2022-11-28T00:51:05;101209.28;;;7.07;100.00
16120;BME280;12670;53.502;10.252;2022-11-28T00:54:09;101201.75;;;7.31;100.00
16120;BME280;12670;53.502;10.252;2022-11-28T00:57:13;101195.22;;;7.48;100.00
16120;BME280;12670;53.502;10.252;2022-11-28T01:00:16;101191.28;;;7.26;100.00
16120;BME280;12670;53.502;10.252;2022-11-28T01:03:19;101170.59;;;7.06;100.00
16120;BME280;12670;53.502;10.252;2022-11-28T01:06:23;101164.25;;;7.16;100.00
16120;BME280;12670;53.502;10.252;2022-11-28T01:09:25;101160.84;;;7.50;100.00
16120;BME280;12670;53.502;10.252;2022-11-28T01:12:29;101157.38;;;7.48;99.69
16120;BME280;12670;53.502;10.252;2022-11-28T01:15:32;101168.19;;;7.37;100.00
16120;BME280;12670;53.502;10.252;2022-11-28T01:18:35;101162.66;;;7.48;100.00
16120;BME280;12670;53.502;10.252;2022-11-28T01:21:38;101166.34;;;7.41;100.00
16120;BME280;12670;53.502;10.252;2022-11-28T01:24:40;101169.50;;;7.58;100.00
16120;BME280;12670;53.502;10.252;2022-11-28T01:27:45;101159.41;;;7.37;99.82
16120;BME280;12670;53.502;10.252;2022-11-28T01:30:47;101156.63;;;7.43;100.00
16120;BME280;12670;53.502;10.252;2022-11-28T01:33:51;101154.97;;;7.37;100.00
16120;BME280;12670;53.502;10.252;2022-11-28T01:36:53;101160.03;;;7.48;100.00
16120;BME280;12670;53.502;10.252;2022-11-28T01:39:56;101143.28;;;7.49;100.00
16120;BME280;12670;53.502;10.252;2022-11-28T01:43:00;101150.22;;;7.53;100.00
16120;BME280;12670;53.502;10.252;2022-11-28T01:46:04;101133.00;;;7.37;99.12
16120;BME280;12670;53.502;10.252;2022-11-28T01:49:10;101126.94;;;7.32;100.00
16120;BME280;12670;53.502;10.252;2022-11-28T01:52:16;101127.66;;;7.40;100.00
16120;BME280;12670;53.502;10.252;2022-11-28T01:55:23;101104.38;;;7.57;100.00
16120;BME280;12670;53.502;10.252;2022-11-28T01:58:30;101095.28;;;7.32;100.00
16120;BME280;12670;53.502;10.252;2022-11-28T02:01:34;101120.50;;;7.45;100.00
16120;BME280;12670;53.502;10.252;2022-11-28T02:04:37;101094.25;;;7.39;100.00
16120;BME280;12670;53.502;10.252;2022-11-28T02:07:41;101088.78;;;7.46;99.37
16120;BME280;12670;53.502;10.252;2022-11-28T02:10:58;101075.75;;;7.40;100.00
16120;BME280;12670;53.502;10.252;2022-11-28T02:14:12;101073.91;;;7.05;100.00
16120;BME280;12670;53.502;10.252;2022-11-28T02:17:25;101065.59;;;7.22;100.00
16120;BME280;12670;53.502;10.252;2022-11-28T02:21:10;101050.34;;;7.35;100.00
16120;BME280;12670;53.502;10.252;2022-11-28T02:27:59;101027.94;;;7.15;100.00
16120;BME280;12670;53.502;10.252;2022-11-28T02:31:22;101016.72;;;7.43;100.00
16120;BME280;12670;53.502;10.252;2022-11-28T02:34:36;101015.13;;;7.36;100.00
16120;BME280;12670;53.502;10.252;2022-11-28T02:37:58;101017.38;;;7.15;99.80
16120;BME280;12670;53.502;10.252;2022-11-28T02:41:07;100997.13;;;7.16;99.45
16120;BME280;12670;53.502;10.252;2022-11-28T02:44:18;100998.50;;;6.95;100.00
16120;BME280;12670;53.502;10.252;2022-11-28T02:47:24;100997.59;;;6.96;99.58
16120;BME280;12670;53.502;10.252;2022-11-28T02:50:34;100987.00;;;6.98;100.00
16120;BME280;12670;53.502;10.252;2022-11-28T02:53:40;100977.59;;;6.86;99.82
16120;BME280;12670;53.502;10.252;2022-11-28T02:56:46;100973.66;;;7.05;99.33
16120;BME280;12670;53.502;10.252;2022-11-28T02:59:50;100972.13;;;6.95;98.38
16120;BME280;12670;53.502;10.252;2022-11-28T03:06:23;100976.19;;;7.10;97.95
16120;BME280;12670;53.502;10.252;2022-11-28T03:09:47;100973.56;;;7.08;99.25
16120;BME280;12670;53.502;10.252;2022-11-28T03:13:05;100978.78;;;7.11;98.47
16120;BME280;12670;53.502;10.252;2022-11-28T03:16:17;100987.28;;;6.85;99.03
16120;BME280;12670;53.502;10.252;2022-11-28T03:19:28;100992.03;;;7.08;98.62
16120;BME280;12670;53.502;10.252;2022-11-28T03:22:39;100985.50;;;6.87;97.98
16120;BME280;12670;53.502;10.252;2022-11-28T03:25:52;100987.63;;;6.70;98.00
16120;BME280;12670;53.502;10.252;2022-11-28T03:29:00;100989.13;;;6.82;98.27
16120;BME280;12670;53.502;10.252;2022-11-28T03:32:07;100983.53;;;6.95;98.37
16120;BME280;12670;53.502;10.252;2022-11-28T03:35:14;100965.78;;;7.04;98.40
16120;BME280;12670;53.502;10.252;2022-11-28T03:38:21;100957.97;;;6.98;98.16
16120;BME280;12670;53.502;10.252;2022-11-28T03:41:32;100958.69;;;7.06;97.08
16120;BME280;12670;53.502;10.252;2022-11-28T03:44:40;100966.56;;;7.07;97.43
16120;BME280;12670;53.502;10.252;2022-11-28T03:47:47;100965.03;;;6.97;95.82
16120;BME280;12670;53.502;10.252;2022-11-28T03:50:56;100957.34;;;6.88;96.62
16120;BME280;12670;53.502;10.252;2022-11-28T03:54:04;100968.00;;;6.83;96.71
16120;BME280;12670;53.502;10.252;2022-11-28T03:57:13;100962.91;;;6.76;97.47
16120;BME280;12670;53.502;10.252;2022-11-28T04:00:19;100960.13;;;6.82;97.96
16120;BME280;12670;53.502;10.252;2022-11-28T04:03:27;100957.00;;;6.64;97.70
16120;BME280;12670;53.502;10.252;2022-11-28T04:06:37;100957.75;;;6.70;98.28
16120;BME280;12670;53.502;10.252;2022-11-28T04:09:48;100969.41;;;6.98;98.11
16120;BME280;12670;53.502;10.252;2022-11-28T04:12:54;100958.59;;;6.72;97.06
16120;BME280;12670;53.502;10.252;2022-11-28T04:16:02;100959.69;;;7.00;96.54
16120;BME280;12670;53.502;10.252;2022-11-28T04:19:13;100972.69;;;6.71;97.56
16120;BME280;12670;53.502;10.252;2022-11-28T04:22:19;100984.69;;;6.84;96.12
16120;BME280;12670;53.502;10.252;2022-11-28T04:25:27;100984.25;;;6.63;98.59
16120;BME280;12670;53.502;10.252;2022-11-28T04:28:33;101000.00;;;6.66;97.45
16120;BME280;12670;53.502;10.252;2022-11-28T04:31:39;100975.44;;;6.64;97.65
16120;BME280;12670;53.502;10.252;2022-11-28T04:34:47;100978.47;;;6.86;97.55
16120;BME280;12670;53.502;10.252;2022-11-28T04:37:52;100989.53;;;7.02;96.60
16120;BME280;12670;53.502;10.252;2022-11-28T04:41:01;100987.59;;;6.72;96.33
16120;BME280;12670;53.502;10.252;2022-11-28T04:44:09;100967.94;;;6.85;95.72
16120;BME280;12670;53.502;10.252;2022-11-28T04:47:14;100967.81;;;6.91;95.99
16120;BME280;12670;53.502;10.252;2022-11-28T04:50:18;100963.09;;;7.05;96.19
16120;BME280;12670;53.502;10.252;2022-11-28T04:53:30;100969.28;;;7.03;96.15
16120;BME280;12670;53.502;10.252;2022-11-28T04:56:40;100964.00;;;7.04;95.85
16120;BME280;12670;53.502;10.252;2022-11-28T04:59:44;100967.00;;;7.25;94.83
16120;BME280;12670;53.502;10.252;2022-11-28T05:02:49;100960.38;;;7.08;94.74
16120;BME280;12670;53.502;10.252;2022-11-28T05:05:53;100954.75;;;6.85;95.08
16120;BME280;12670;53.502;10.252;2022-11-28T05:08:56;100952.59;;;7.02;95.69
16120;BME280;12670;53.502;10.252;2022-11-28T05:12:00;100945.38;;;7.10;95.93
16120;BME280;12670;53.502;10.252;2022-11-28T05:15:04;100947.25;;;7.05;94.85
16120;BME280;12670;53.502;10.252;2022-11-28T05:18:07;100941.13;;;6.66;95.29
16120;BME280;12670;53.502;10.252;2022-11-28T05:21:10;100946.66;;;6.94;97.02
16120;BME280;12670;53.502;10.252;2022-11-28T05:24:13;100961.75;;;6.86;96.44
16120;BME280;12670;53.502;10.252;2022-11-28T05:27:17;100997.66;;;6.93;95.55
16120;BME280;12670;53.502;10.252;2022-11-28T05:30:20;101003.97;;;6.86;97.26
16120;BME280;12670;53.502;10.252;2022-11-28T05:33:23;101004.59;;;6.97;98.98
16120;BME280;12670;53.502;10.252;2022-11-28T05:36:25;101014.31;;;6.95;98.75
16120;BME280;12670;53.502;10.252;2022-11-28T05:39:28;101016.53;;;7.13;98.05
16120;BME280;12670;53.502;10.252;2022-11-28T05:42:33;101021.00;;;7.11;98.46
16120;BME280;12670;53.502;10.252;2022-11-28T05:45:38;101021.66;;;7.19;98.41
16120;BME280;12670;53.502;10.252;2022-11-28T05:48:41;101027.88;;;6.78;97.58
16120;BME280;12670;53.502;10.252;2022-11-28T05:51:43;101024.16;;;6.88;97.41
16120;BME280;12670;53.502;10.252;2022-11-28T05:54:46;101023.28;;;6.88;97.75
16120;BME280;12670;53.502;10.252;2022-11-28T05:57:50;101030.22;;;6.92;98.90
16120;BME280;12670;53.502;10.252;2022-11-28T06:00:54;101029.88;;;7.07;98.33
16120;BME280;12670;53.502;10.252;2022-11-28T06:03:56;101020.28;;;7.03;96.96
16120;BME280;12670;53.502;10.252;2022-11-28T06:07:01;101009.00;;;6.98;95.73
16120;BME280;12670;53.502;10.252;2022-11-28T06:10:05;100994.88;;;6.99;95.63
16120;BME280;12670;53.502;10.252;2022-11-28T06:13:09;100991.44;;;6.95;97.37
16120;BME280;12670;53.502;10.252;2022-11-28T06:16:14;100982.75;;;6.90;97.53
16120;BME280;12670;53.502;10.252;2022-11-28T06:19:16;100977.72;;;6.80;96.37
16120;BME280;12670;53.502;10.252;2022-11-28T06:22:19;100971.63;;;6.78;97.29
16120;BME280;12670;53.502;10.252;2022-11-28T06:25:22;100963.38;;;6.93;97.20
16120;BME280;12670;53.502;10.252;2022-11-28T06:28:26;100965.31;;;6.85;95.84
16120;BME280;12670;53.502;10.252;2022-11-28T06:31:29;100955.75;;;6.81;96.14
16120;BME280;12670;53.502;10.252;2022-11-28T06:34:31;100959.72;;;6.60;95.41
16120;BME280;12670;53.502;10.252;2022-11-28T06:37:34;100967.31;;;6.74;96.84
16120;BME280;12670;53.502;10.252;2022-11-28T06:40:37;100974.69;;;6.98;95.74
16120;BME280;12670;53.502;10.252;2022-11-28T06:43:41;100969.41;;;6.98;94.68
16120;BME280;12670;53.502;10.252;2022-11-28T06:46:44;100958.44;;;6.78;94.85
16120;BME280;12670;53.502;10.252;2022-11-28T06:49:47;100947.84;;;6.81;96.22
16120;BME280;12670;53.502;10.252;2022-11-28T06:52:50;100956.56;;;6.83;95.28
16120;BME280;12670;53.502;10.252;2022-11-28T06:55:52;100965.09;;;6.94;94.26
16120;BME280;12670;53.502;10.252;2022-11-28T06:58:58;100954.31;;;7.03;94.43
16120;BME280;12670;53.502;10.252;2022-11-28T07:02:00;100962.75;;;6.82;95.18
16120;BME280;12670;53.502;10.252;2022-11-28T07:05:08;100960.25;;;6.76;94.54
16120;BME280;12670;53.502;10.252;2022-11-28T07:08:11;100990.84;;;6.83;95.62
16120;BME280;12670;53.502;10.252;2022-11-28T07:11:15;100991.25;;;7.03;94.77
16120;BME280;12670;53.502;10.252;2022-11-28T07:14:20;100975.63;;;6.95;95.54
16120;BME280;12670;53.502;10.252;2022-11-28T07:17:22;100991.34;;;7.00;93.94
16120;BME280;12670;53.502;10.252;2022-11-28T07:20:25;100998.06;;;7.13;93.80
16120;BME280;12670;53.502;10.252;2022-11-28T07:23:28;101015.03;;;7.02;93.18
16120;BME280;12670;53.502;10.252;2022-11-28T07:26:31;101003.44;;;7.10;94.06
16120;BME280;12670;53.502;10.252;2022-11-28T07:29:35;100994.50;;;7.14;95.44
16120;BME280;12670;53.502;10.252;2022-11-28T07:32:38;100994.66;;;7.10;94.19
16120;BME280;12670;53.502;10.252;2022-11-28T07:35:40;100991.00;;;7.15;95.25
16120;BME280;12670;53.502;10.252;2022-11-28T07:38:45;100983.97;;;7.14;94.46
16120;BME280;12670;53.502;10.252;2022-11-28T07:41:49;100994.50;;;7.14;95.22
16120;BME280;12670;53.502;10.252;2022-11-28T07:44:53;100993.91;;;7.03;94.38
16120;BME280;12670;53.502;10.252;2022-11-28T07:47:56;100995.56;;;7.07;95.64
16120;BME280;12670;53.502;10.252;2022-11-28T07:50:58;101006.84;;;7.15;94.53
16120;BME280;12670;53.502;10.252;2022-11-28T07:54:02;100998.97;;;7.12;93.24
16120;BME280;12670;53.502;10.252;2022-11-28T07:57:05;100993.97;;;7.00;93.98
16120;BME280;12670;53.502;10.252;2022-11-28T08:00:16;100993.75;;;7.09;96.20
16120;BME280;12670;53.502;10.252;2022-11-28T08:03:19;100992.78;;;7.13;93.85
16120;BME280;12670;53.502;10.252;2022-11-28T08:06:24;100996.19;;;7.18;94.42
16120;BME280;12670;53.502;10.252;2022-11-28T08:09:27;100987.47;;;7.15;94.63
16120;BME280;12670;53.502;10.252;2022-11-28T08:12:29;100987.88;;;6.98;95.20
16120;BME280;12670;53.502;10.252;2022-11-28T08:15:35;100992.72;;;7.16;95.37
16120;BME280;12670;53.502;10.252;2022-11-28T08:18:38;100990.03;;;7.18;93.64
16120;BME280;12670;53.502;10.252;2022-11-28T08:21:40;100980.09;;;7.29;94.18
16120;BME280;12670;53.502;10.252;2022-11-28T08:24:43;100988.94;;;7.27;94.62
16120;BME280;12670;53.502;10.252;2022-11-28T08:27:46;100998.38;;;7.37;93.87
16120;BME280;12670;53.502;10.252;2022-11-28T08:30:50;100999.44;;;7.30;92.40
16120;BME280;12670;53.502;10.252;2022-11-28T08:33:54;101006.41;;;7.32;93.08
16120;BME280;12670;53.502;10.252;2022-11-28T08:36:57;101010.94;;;7.27;93.09
16120;BME280;12670;53.502;10.252;2022-11-28T08:40:00;101010.16;;;7.24;94.41
16120;BME280;12670;53.502;10.252;2022-11-28T08:43:02;101007.00;;;7.43;94.43
16120;BME280;12670;53.502;10.252;2022-11-28T08:46:09;101020.19;;;7.45;93.88
16120;BME280;12670;53.502;10.252;2022-11-28T08:49:12;101026.56;;;7.36;92.40
16120;BME280;12670;53.502;10.252;2022-11-28T08:52:14;101032.50;;;7.46;92.54
16120;BME280;12670;53.502;10.252;2022-11-28T08:55:20;101026.84;;;7.24;91.75
16120;BME280;12670;53.502;10.252;2022-11-28T08:58:32;101032.78;;;7.34;94.17
16120;BME280;12670;53.502;10.252;2022-11-28T09:01:36;101030.81;;;7.05;90.43
16120;BME280;12670;53.502;10.252;2022-11-28T09:04:39;101026.47;;;7.02;91.97
16120;BME280;12670;53.502;10.252;2022-11-28T09:07:42;101030.50;;;7.18;92.82
16120;BME280;12670;53.502;10.252;2022-11-28T09:10:45;101034.72;;;7.26;93.23
16120;BME280;12670;53.502;10.252;2022-11-28T09:13:49;101030.34;;;7.25;92.40
16120;BME280;12670;53.502;10.252;2022-11-28T09:16:53;101024.25;;;7.22;92.14
16120;BME280;12670;53.502;10.252;2022-11-28T09:19:56;101040.28;;;7.13;91.62
16120;BME280;12670;53.502;10.252;2022-11-28T09:22:58;101007.09;;;7.03;90.04
16120;BME280;12670;53.502;10.252;2022-11-28T09:26:07;101018.13;;;6.82;92.34
16120;BME280;12670;53.502;10.252;2022-11-28T09:29:10;101018.53;;;7.02;92.72
16120;BME280;12670;53.502;10.252;2022-11-28T09:32:14;101017.63;;;7.03;91.72
16120;BME280;12670;53.502;10.252;2022-11-28T09:35:17;101016.00;;;6.98;90.46
16120;BME280;12670;53.502;10.252;2022-11-28T09:38:20;101021.19;;;7.04;93.08
16120;BME280;12670;53.502;10.252;2022-11-28T09:41:40;101018.13;;;7.20;90.14
16120;BME280;12670;53.502;10.252;2022-11-28T09:44:48;101023.47;;;7.17;90.44
16120;BME280;12670;53.502;10.252;2022-11-28T09:47:56;101022.72;;;7.12;92.14
16120;BME280;12670;53.502;10.252;2022-11-28T09:51:05;101019.22;;;7.12;90.12
16120;BME280;12670;53.502;10.252;2022-11-28T09:54:18;101017.28;;;7.18;92.34
16120;BME280;12670;53.502;10.252;2022-11-28T09:57:30;101021.31;;;7.35;91.29
16120;BME280;12670;53.502;10.252;2022-11-28T10:00:35;101027.09;;;7.13;90.67
16120;BME280;12670;53.502;10.252;2022-11-28T10:03:48;101023.44;;;7.19;90.84
16120;BME280;12670;53.502;10.252;2022-11-28T10:06:58;101016.09;;;7.32;91.31
16120;BME280;12670;53.502;10.252;2022-11-28T10:13:19;101014.59;;;7.21;89.61
16120;BME280;12670;53.502;10.252;2022-11-28T10:16:40;101019.78;;;7.25;90.17
16120;BME280;12670;53.502;10.252;2022-11-28T10:19:50;101025.38;;;7.48;90.54
16120;BME280;12670;53.502;10.252;2022-11-28T10:22:58;101033.19;;;7.53;90.58
16120;BME280;12670;53.502;10.252;2022-11-28T10:26:05;101030.91;;;7.39;91.35
16120;BME280;12670;53.502;10.252;2022-11-28T10:29:41;101028.78;;;7.53;92.10
16120;BME280;12670;53.502;10.252;2022-11-28T10:32:53;101028.69;;;7.56;91.78
16120;BME280;12670;53.502;10.252;2022-11-28T10:35:59;101020.78;;;7.56;92.82
16120;BME280;12670;53.502;10.252;2022-11-28T10:39:09;101019.41;;;7.75;90.54
16120;BME280;12670;53.502;10.252;2022-11-28T10:42:16;101019.69;;;7.65;90.80
16120;BME280;12670;53.502;10.252;2022-11-28T10:45:24;101018.72;;;7.67;90.62
16120;BME280;12670;53.502;10.252;2022-11-28T10:48:35;101017.53;;;7.81;90.64
16120;BME280;12670;53.502;10.252;2022-11-28T10:51:50;101011.56;;;7.72;90.95
16120;BME280;12670;53.502;10.252;2022-11-28T10:55:07;101012.47;;;7.71;90.12
16120;BME280;12670;53.502;10.252;2022-11-28T10:58:20;101007.28;;;7.68;92.23
16120;BME280;12670;53.502;10.252;2022-11-28T11:01:27;101010.66;;;7.73;91.10
16120;BME280;12670;53.502;10.252;2022-11-28T11:04:32;100997.34;;;7.78;90.02
16120;BME280;12670;53.502;10.252;2022-11-28T11:07:43;100993.75;;;7.81;90.77
16120;BME280;12670;53.502;10.252;2022-11-28T11:10:49;100992.84;;;7.82;90.45
16120;BME280;12670;53.502;10.252;2022-11-28T11:13:58;100999.94;;;7.80;89.72
16120;BME280;12670;53.502;10.252;2022-11-28T11:17:02;101001.84;;;7.74;89.46
16120;BME280;12670;53.502;10.252;2022-11-28T11:20:25;101005.06;;;7.86;90.16
16120;BME280;12670;53.502;10.252;2022-11-28T11:23:29;101006.22;;;7.75;90.13
16120;BME280;12670;53.502;10.252;2022-11-28T11:26:40;101005.31;;;7.77;90.32
16120;BME280;12670;53.502;10.252;2022-11-28T11:29:44;101010.66;;;7.73;91.63
16120;BME280;12670;53.502;10.252;2022-11-28T11:32:52;101002.00;;;7.68;90.42
16120;BME280;12670;53.502;10.252;2022-11-28T11:35:55;100997.28;;;7.81;90.78
16120;BME280;12670;53.502;10.252;2022-11-28T11:39:15;100994.75;;;7.77;91.43
16120;BME280;12670;53.502;10.252;2022-11-28T11:42:22;100996.56;;;7.74;92.05
16120;BME280;12670;53.502;10.252;2022-11-28T11:45:28;101000.25;;;7.67;91.74
16120;BME280;12670;53.502;10.252;2022-11-28T11:48:36;101005.88;;;7.54;91.86
16120;BME280;12670;53.502;10.252;2022-11-28T11:51:39;101005.84;;;7.55;93.42
16120;BME280;12670;53.502;10.252;2022-11-28T11:54:53;101003.75;;;7.32;93.19
16120;BME280;12670;53.502;10.252;2022-11-28T11:57:59;101013.00;;;7.50;96.20
16120;BME280;12670;53.502;10.252;2022-11-28T12:01:07;101007.97;;;7.41;94.67
16120;BME280;12670;53.502;10.252;2022-11-28T12:04:15;101005.97;;;7.51;96.20
16120;BME280;12670;53.502;10.252;2022-11-28T12:07:47;101000.72;;;7.49;95.71
16120;BME280;12670;53.502;10.252;2022-11-28T12:11:03;101008.47;;;7.57;96.04
16120;BME280;12670;53.502;10.252;2022-11-28T12:14:25;101005.84;;;7.55;96.54
16120;BME280;12670;53.502;10.252;2022-11-28T12:17:39;100995.13;;;7.61;96.18
16120;BME280;12670;53.502;10.252;2022-11-28T12:21:01;100993.50;;;7.57;95.35
16120;BME280;12670;53.502;10.252;2022-11-28T12:24:09;100995.44;;;7.49;96.29
16120;BME280;12670;53.502;10.252;2022-11-28T12:27:23;100995.22;;;7.58;96.33
16120;BME280;12670;53.502;10.252;2022-11-28T12:30:39;100982.00;;;7.58;96.16
16120;BME280;12670;53.502;10.252;2022-11-28T12:33:55;100989.03;;;7.24;97.07
16120;BME280;12670;53.502;10.252;2022-11-28T12:37:08;100993.66;;;7.49;97.15
16120;BME280;12670;53.502;10.252;2022-11-28T12:40:23;100990.34;;;7.41;96.57
16120;BME280;12670;53.502;10.252;2022-11-28T12:43:44;100986.09;;;7.36;96.04
16120;BME280;12670;53.502;10.252;2022-11-28T12:46:58;100982.69;;;7.31;95.94
16120;BME280;12670;53.502;10.252;2022-11-28T12:50:14;100988.72;;;7.36;96.78
16120;BME280;12670;53.502;10.252;2022-11-28T12:53:36;100990.56;;;7.34;96.67
16120;BME280;12670;53.502;10.252;2022-11-28T12:56:46;100989.50;;;7.41;97.43
16120;BME280;12670;53.502;10.252;2022-11-28T12:59:57;100990.50;;;7.35;97.13
16120;BME280;12670;53.502;10.252;2022-11-28T13:03:15;100992.88;;;7.46;98.06
16120;BME280;12670;53.502;10.252;2022-11-28T13:06:27;100992.78;;;7.49;96.93
16120;BME280;12670;53.502;10.252;2022-11-28T13:09:36;100993.00;;;7.41;96.42
16120;BME280;12670;53.502;10.252;2022-11-28T13:12:46;100980.59;;;7.45;97.39
16120;BME280;12670;53.502;10.252;2022-11-28T13:16:01;100982.09;;;7.19;96.97
16120;BME280;12670;53.502;10.252;2022-11-28T13:19:26;100983.66;;;7.27;96.77
16120;BME280;12670;53.502;10.252;2022-11-28T13:22:38;100981.63;;;7.38;96.12
16120;BME280;12670;53.502;10.252;2022-11-28T13:25:50;100992.03;;;7.44;97.15
16120;BME280;12670;53.502;10.252;2022-11-28T13:28:58;100993.84;;;7.42;98.42
16120;BME280;12670;53.502;10.252;2022-11-28T13:32:08;100982.53;;;7.37;98.53
16120;BME280;12670;53.502;10.252;2022-11-28T13:35:16;100985.28;;;7.34;97.88
16120;BME280;12670;53.502;10.252;2022-11-28T13:38:23;100980.75;;;7.39;98.38
16120;BME280;12670;53.502;10.252;2022-11-28T13:41:42;100987.31;;;7.21;98.78
16120;BME280;12670;53.502;10.252;2022-11-28T13:45:19;100990.09;;;6.78;99.68
16120;BME280;12670;53.502;10.252;2022-11-28T13:48:57;100983.63;;;6.92;100.00
16120;BME280;12670;53.502;10.252;2022-11-28T13:52:30;100993.84;;;7.06;100.00
16120;BME280;12670;53.502;10.252;2022-11-28T13:55:39;100986.97;;;6.99;100.00
16120;BME280;12670;53.502;10.252;2022-11-28T13:58:48;100987.66;;;7.07;100.00
16120;BME280;12670;53.502;10.252;2022-11-28T14:01:56;100992.88;;;7.10;100.00
16120;BME280;12670;53.502;10.252;2022-11-28T14:05:02;100988.34;;;7.15;100.00
16120;BME280;12670;53.502;10.252;2022-11-28T14:08:05;100989.25;;;7.14;100.00
16120;BME280;12670;53.502;10.252;2022-11-28T14:15:01;100988.31;;;7.17;100.00
16120;BME280;12670;53.502;10.252;2022-11-28T14:18:24;100997.13;;;7.16;100.00
16120;BME280;12670;53.502;10.252;2022-11-28T14:22:02;100997.03;;;6.82;99.54
16120;BME280;12670;53.502;10.252;2022-11-28T14:25:13;100986.50;;;6.82;100.00
16120;BME280;12670;53.502;10.252;2022-11-28T14:28:21;100997.94;;;6.81;100.00
16120;BME280;12670;53.502;10.252;2022-11-28T14:31:28;101001.06;;;6.98;100.00
16120;BME280;12670;53.502;10.252;2022-11-28T14:34:37;100998.91;;;6.77;100.00
16120;BME280;12670;53.502;10.252;2022-11-28T14:37:52;100999.78;;;6.77;100.00
16120;BME280;12670;53.502;10.252;2022-11-28T14:41:00;100994.84;;;6.60;100.00
16120;BME280;12670;53.502;10.252;2022-11-28T14:48:14;101001.06;;;6.58;100.00
16120;BME280;12670;53.502;10.252;2022-11-28T14:51:18;100993.22;;;6.55;100.00
16120;BME280;12670;53.502;10.252;2022-11-28T14:54:29;101005.34;;;6.63;100.00
16120;BME280;12670;53.502;10.252;2022-11-28T14:57:53;100997.50;;;6.60;100.00
16120;BME280;12670;53.502;10.252;2022-11-28T15:00:57;100999.63;;;6.43;100.00
16120;BME280;12670;53.502;10.252;2022-11-28T15:04:16;100996.81;;;6.52;100.00
16120;BME280;12670;53.502;10.252;2022-11-28T15:07:29;101000.34;;;6.51;100.00
16120;BME280;12670;53.502;10.252;2022-11-28T15:10:43;101003.16;;;6.42;100.00
16120;BME280;12670;53.502;10.252;2022-11-28T15:14:03;101005.63;;;6.50;100.00
16120;BME280;12670;53.502;10.252;2022-11-28T15:17:11;101010.16;;;6.43;100.00
16120;BME280;12670;53.502;10.252;2022-11-28T15:20:19;101009.22;;;6.47;100.00
16120;BME280;12670;53.502;10.252;2022-11-28T15:23:24;101005.00;;;6.37;100.00
16120;BME280;12670;53.502;10.252;2022-11-28T15:26:29;101018.84;;;6.48;100.00
16120;BME280;12670;53.502;10.252;2022-11-28T15:29:32;101015.50;;;6.40;100.00
16120;BME280;12670;53.502;10.252;2022-11-28T15:32:35;101009.38;;;6.39;100.00
16120;BME280;12670;53.502;10.252;2022-11-28T15:35:39;101013.75;;;6.39;100.00
16120;BME280;12670;53.502;10.252;2022-11-28T15:38:42;101012.00;;;6.38;100.00
16120;BME280;12670;53.502;10.252;2022-11-28T15:41:47;101015.50;;;6.40;100.00
16120;BME280;12670;53.502;10.252;2022-11-28T15:44:53;101022.75;;;6.29;100.00
16120;BME280;12670;53.502;10.252;2022-11-28T15:47:57;101019.22;;;6.30;100.00
16120;BME280;12670;53.502;10.252;2022-11-28T15:51:01;101019.88;;;6.41;100.00
16120;BME280;12670;53.502;10.252;2022-11-28T15:54:23;101010.34;;;6.34;100.00
16120;BME280;12670;53.502;10.252;2022-11-28T15:57:28;101018.16;;;6.38;100.00
16120;BME280;12670;53.502;10.252;2022-11-28T16:00:32;101022.88;;;6.23;100.00
16120;BME280;12670;53.502;10.252;2022-11-28T16:03:46;101021.84;;;6.30;100.00
16120;BME280;12670;53.502;10.252;2022-11-28T16:06:51;101025.34;;;6.30;100.00
16120;BME280;12670;53.502;10.252;2022-11-28T16:09:57;101023.34;;;6.43;100.00
16120;BME280;12670;53.502;10.252;2022-11-28T16:13:08;101036.38;;;6.49;100.00
16120;BME280;12670;53.502;10.252;2022-11-28T16:16:14;101032.09;;;6.44;100.00
16120;BME280;12670;53.502;10.252;2022-11-28T16:19:22;101034.06;;;6.34;100.00
16120;BME280;12670;53.502;10.252;2022-11-28T16:22:28;101033.84;;;6.46;100.00
16120;BME280;12670;53.502;10.252;2022-11-28T16:25:33;101034.66;;;6.48;100.00
16120;BME280;12670;53.502;10.252;2022-11-28T16:28:38;101041.47;;;6.58;100.00
16120;BME280;12670;53.502;10.252;2022-11-28T16:31:42;101038.25;;;6.44;100.00
16120;BME280;12670;53.502;10.252;2022-11-28T16:34:47;101037.34;;;6.47;100.00
16120;BME280;12670;53.502;10.252;2022-11-28T16:37:50;101042.56;;;6.48;100.00